sensor_id;sensor_type;location;lat;lon;timestamp;pressure;altitude;pressure_sealevel;temperature
53512;BMP280;39392;52.832;13.816;2024-03-25T00:01:53;99557.41;;;20.20
53512;BMP280;39392;52.832;13.816;2024-03-25T00:04:19;99562.00;;;20.20
53512;BMP280;39392;52.832;13.816;2024-03-25T00:06:46;99564.72;;;20.20
53512;BMP280;39392;52.832;13.816;2024-03-25T00:09:11;99563.69;;;20.21
53512;BMP280;39392;52.832;13.816;2024-03-25T00:11:42;99569.13;;;20.21
53512;BMP280;39392;52.832;13.816;2024-03-25T00:14:08;99572.66;;;20.21
53512;BMP280;39392;52.832;13.816;2024-03-25T00:16:34;99563.69;;;20.21
53512;BMP280;39392;52.832;13.816;2024-03-25T00:18:59;99571.63;;;20.22
53512;BMP280;39392;52.832;13.816;2024-03-25T00:21:25;99574.34;;;20.22
53512;BMP280;39392;52.832;13.816;2024-03-25T00:23:50;99567.22;;;20.21
53512;BMP280;39392;52.832;13.816;2024-03-25T00:26:16;99571.00;;;20.20
53512;BMP280;39392;52.832;13.816;2024-03-25T00:28:41;99569.34;;;20.19
53512;BMP280;39392;52.832;13.816;2024-03-25T00:31:07;99576.44;;;20.20
53512;BMP280;39392;52.832;13.816;2024-03-25T00:33:32;99576.44;;;20.20
53512;BMP280;39392;52.832;13.816;2024-03-25T00:35:58;99575.38;;;20.21
53512;BMP280;39392;52.832;13.816;2024-03-25T00:38:24;99579.78;;;20.22
53512;BMP280;39392;52.832;13.816;2024-03-25T00:40:50;99586.50;;;20.20
53512;BMP280;39392;52.832;13.816;2024-03-25T00:43:15;99578.34;;;20.20
53512;BMP280;39392;52.832;13.816;2024-03-25T00:45:41;99586.28;;;20.21
53512;BMP280;39392;52.832;13.816;2024-03-25T00:48:07;99583.78;;;20.20
53512;BMP280;39392;52.832;13.816;2024-03-25T00:50:32;99585.44;;;20.21
53512;BMP280;39392;52.832;13.816;2024-03-25T00:52:58;99581.88;;;20.20
53512;BMP280;39392;52.832;13.816;2024-03-25T00:55:23;99588.16;;;20.21
53512;BMP280;39392;52.832;13.816;2024-03-25T00:57:50;99594.44;;;20.21
53512;BMP280;39392;52.832;13.816;2024-03-25T01:00:15;99587.09;;;20.22
53512;BMP280;39392;52.832;13.816;2024-03-25T01:02:41;99581.88;;;20.20
53512;BMP280;39392;52.832;13.816;2024-03-25T01:05:07;99589.22;;;20.20
53512;BMP280;39392;52.832;13.816;2024-03-25T01:07:32;99589.22;;;20.20
53512;BMP280;39392;52.832;13.816;2024-03-25T01:09:58;99590.88;;;20.21
53512;BMP280;39392;52.832;13.816;2024-03-25T01:12:24;99590.88;;;20.21
53512;BMP280;39392;52.832;13.816;2024-03-25T01:14:50;99594.66;;;20.20
53512;BMP280;39392;52.832;13.816;2024-03-25T01:17:15;99599.03;;;20.21
53512;BMP280;39392;52.832;13.816;2024-03-25T01:19:40;99598.00;;;20.22
53512;BMP280;39392;52.832;13.816;2024-03-25T01:22:06;99598.00;;;20.22
53512;BMP280;39392;52.832;13.816;2024-03-25T01:24:31;99606.38;;;20.20
53512;BMP280;39392;52.832;13.816;2024-03-25T01:26:57;99610.75;;;20.21
53512;BMP280;39392;52.832;13.816;2024-03-25T01:29:22;99610.97;;;20.20
53512;BMP280;39392;52.832;13.816;2024-03-25T01:31:48;99605.53;;;20.20
53512;BMP280;39392;52.832;13.816;2024-03-25T01:34:13;99615.16;;;20.22
53512;BMP280;39392;52.832;13.816;2024-03-25T01:36:39;99615.38;;;20.21
53512;BMP280;39392;52.832;13.816;2024-03-25T01:39:05;99614.53;;;20.20
53512;BMP280;39392;52.832;13.816;2024-03-25T01:41:30;99616.63;;;20.18
53512;BMP280;39392;52.832;13.816;2024-03-25T01:43:56;99621.88;;;20.20
53512;BMP280;39392;52.832;13.816;2024-03-25T01:46:21;99621.03;;;20.19
53512;BMP280;39392;52.832;13.816;2024-03-25T01:48:47;99630.22;;;20.18
53512;BMP280;39392;52.832;13.816;2024-03-25T01:51:14;99621.03;;;20.19
53512;BMP280;39392;52.832;13.816;2024-03-25T01:53:41;99613.06;;;20.18
53512;BMP280;39392;52.832;13.816;2024-03-25T01:56:07;99618.50;;;20.18
53512;BMP280;39392;52.832;13.816;2024-03-25T01:58:33;99623.09;;;20.17
53512;BMP280;39392;52.832;13.816;2024-03-25T02:00:58;99626.66;;;20.18
53512;BMP280;39392;52.832;13.816;2024-03-25T02:03:26;99628.56;;;20.17
53512;BMP280;39392;52.832;13.816;2024-03-25T02:05:53;99629.59;;;20.16
53512;BMP280;39392;52.832;13.816;2024-03-25T02:08:20;99630.44;;;20.17
53512;BMP280;39392;52.832;13.816;2024-03-25T02:10:46;99634.81;;;20.18
53512;BMP280;39392;52.832;13.816;2024-03-25T02:13:12;99635.66;;;20.18
53512;BMP280;39392;52.832;13.816;2024-03-25T02:15:38;99634.63;;;20.19
53512;BMP280;39392;52.832;13.816;2024-03-25T02:18:04;99636.50;;;20.19
53512;BMP280;39392;52.832;13.816;2024-03-25T02:20:29;99635.47;;;20.20
53512;BMP280;39392;52.832;13.816;2024-03-25T02:22:55;99644.66;;;20.19
53512;BMP280;39392;52.832;13.816;2024-03-25T02:25:21;99641.94;;;20.19
53512;BMP280;39392;52.832;13.816;2024-03-25T02:27:46;99647.19;;;20.20
53512;BMP280;39392;52.832;13.816;2024-03-25T02:30:13;99649.25;;;20.18
53512;BMP280;39392;52.832;13.816;2024-03-25T02:32:39;99654.69;;;20.18
53512;BMP280;39392;52.832;13.816;2024-03-25T02:35:05;99661.19;;;20.17
53512;BMP280;39392;52.832;13.816;2024-03-25T02:37:32;99659.94;;;20.20
53512;BMP280;39392;52.832;13.816;2024-03-25T02:39:58;99667.28;;;20.19
53512;BMP280;39392;52.832;13.816;2024-03-25T02:42:27;99662.66;;;20.20
53512;BMP280;39392;52.832;13.816;2024-03-25T02:44:54;99669.13;;;20.19
53512;BMP280;39392;52.832;13.816;2024-03-25T02:47:20;99668.94;;;20.20
53512;BMP280;39392;52.832;13.816;2024-03-25T02:49:45;99671.66;;;20.20
53512;BMP280;39392;52.832;13.816;2024-03-25T02:52:11;99675.22;;;20.21
53512;BMP280;39392;52.832;13.816;2024-03-25T02:54:36;99668.31;;;20.18
53512;BMP280;39392;52.832;13.816;2024-03-25T02:57:02;99679.00;;;20.20
53512;BMP280;39392;52.832;13.816;2024-03-25T02:59:27;99682.75;;;20.19
53512;BMP280;39392;52.832;13.816;2024-03-25T03:01:53;99683.59;;;20.19
53512;BMP280;39392;52.832;13.816;2024-03-25T03:04:18;99688.00;;;20.20
53512;BMP280;39392;52.832;13.816;2024-03-25T03:06:44;99684.44;;;20.20
53512;BMP280;39392;52.832;13.816;2024-03-25T03:09:09;99690.91;;;20.19
53512;BMP280;39392;52.832;13.816;2024-03-25T03:11:35;99692.78;;;20.18
53512;BMP280;39392;52.832;13.816;2024-03-25T03:14:00;99699.94;;;20.19
53512;BMP280;39392;52.832;13.816;2024-03-25T03:16:26;99700.75;;;20.20
53512;BMP280;39392;52.832;13.816;2024-03-25T03:18:52;99697.22;;;20.19
53512;BMP280;39392;52.832;13.816;2024-03-25T03:21:17;99709.75;;;20.20
53512;BMP280;39392;52.832;13.816;2024-03-25T03:23:43;99714.97;;;20.22
53512;BMP280;39392;52.832;13.816;2024-03-25T03:26:08;99723.34;;;20.20
53512;BMP280;39392;52.832;13.816;2024-03-25T03:28:33;99717.91;;;20.20
53512;BMP280;39392;52.832;13.816;2024-03-25T03:30:59;99715.38;;;20.19
53512;BMP280;39392;52.832;13.816;2024-03-25T03:33:24;99723.53;;;20.19
53512;BMP280;39392;52.832;13.816;2024-03-25T03:35:51;99729.84;;;20.19
53512;BMP280;39392;52.832;13.816;2024-03-25T03:38:16;99726.06;;;20.20
53512;BMP280;39392;52.832;13.816;2024-03-25T03:40:42;99730.69;;;20.20
53512;BMP280;39392;52.832;13.816;2024-03-25T03:43:07;99738.84;;;20.20
53512;BMP280;39392;52.832;13.816;2024-03-25T03:45:34;99732.56;;;20.19
53512;BMP280;39392;52.832;13.816;2024-03-25T03:48:00;99745.94;;;20.21
53512;BMP280;39392;52.832;13.816;2024-03-25T03:50:26;99750.56;;;20.20
53512;BMP280;39392;52.832;13.816;2024-03-25T03:52:51;99758.50;;;20.22
53512;BMP280;39392;52.832;13.816;2024-03-25T03:55:17;99763.13;;;20.21
53512;BMP280;39392;52.832;13.816;2024-03-25T03:57:42;99754.94;;;20.21
53512;BMP280;39392;52.832;13.816;2024-03-25T04:00:08;99756.63;;;20.22
53512;BMP280;39392;52.832;13.816;2024-03-25T04:02:34;99748.44;;;20.22
53512;BMP280;39392;52.832;13.816;2024-03-25T04:04:59;99757.44;;;20.23
53512;BMP280;39392;52.832;13.816;2024-03-25T04:07:25;99755.59;;;20.23
53512;BMP280;39392;52.832;13.816;2024-03-25T04:09:54;99766.25;;;20.25
53512;BMP280;39392;52.832;13.816;2024-03-25T04:12:19;99768.16;;;20.24
53512;BMP280;39392;52.832;13.816;2024-03-25T04:14:48;99768.16;;;20.24
53512;BMP280;39392;52.832;13.816;2024-03-25T04:17:14;99769.81;;;20.25
53512;BMP280;39392;52.832;13.816;2024-03-25T04:19:40;99770.88;;;20.24
53512;BMP280;39392;52.832;13.816;2024-03-25T04:22:05;99777.38;;;20.23
53512;BMP280;39392;52.832;13.816;2024-03-25T04:24:32;99784.25;;;20.26
53512;BMP280;39392;52.832;13.816;2024-03-25T04:26:59;99787.81;;;20.26
53512;BMP280;39392;52.832;13.816;2024-03-25T04:29:25;99794.09;;;20.27
53512;BMP280;39392;52.832;13.816;2024-03-25T04:31:50;99799.53;;;20.27
53512;BMP280;39392;52.832;13.816;2024-03-25T04:34:16;99794.91;;;20.27
53512;BMP280;39392;52.832;13.816;2024-03-25T04:36:41;99794.09;;;20.27
53512;BMP280;39392;52.832;13.816;2024-03-25T04:39:07;99793.06;;;20.28
53512;BMP280;39392;52.832;13.816;2024-03-25T04:41:33;99804.97;;;20.27
53512;BMP280;39392;52.832;13.816;2024-03-25T04:43:59;99810.41;;;20.27
53512;BMP280;39392;52.832;13.816;2024-03-25T04:46:24;99813.13;;;20.27
53512;BMP280;39392;52.832;13.816;2024-03-25T04:48:50;99813.97;;;20.27
53512;BMP280;39392;52.832;13.816;2024-03-25T04:51:15;99821.09;;;20.28
53512;BMP280;39392;52.832;13.816;2024-03-25T04:53:40;99827.38;;;20.29
53512;BMP280;39392;52.832;13.816;2024-03-25T04:56:06;99825.72;;;20.28
53512;BMP280;39392;52.832;13.816;2024-03-25T04:58:32;99830.28;;;20.27
53512;BMP280;39392;52.832;13.816;2024-03-25T05:00:57;99836.59;;;20.28
53512;BMP280;39392;52.832;13.816;2024-03-25T05:03:22;99842.88;;;20.28
53512;BMP280;39392;52.832;13.816;2024-03-25T05:05:48;99840.16;;;20.28
53512;BMP280;39392;52.832;13.816;2024-03-25T05:08:13;99847.47;;;20.28
53512;BMP280;39392;52.832;13.816;2024-03-25T05:10:39;99844.75;;;20.28
53512;BMP280;39392;52.832;13.816;2024-03-25T05:13:04;99850.19;;;20.28
53512;BMP280;39392;52.832;13.816;2024-03-25T05:15:30;99850.19;;;20.28
53512;BMP280;39392;52.832;13.816;2024-03-25T05:17:56;99853.75;;;20.28
53512;BMP280;39392;52.832;13.816;2024-03-25T05:20:21;99859.19;;;20.28
53512;BMP280;39392;52.832;13.816;2024-03-25T05:22:47;99863.59;;;20.29
53512;BMP280;39392;52.832;13.816;2024-03-25T05:25:12;99874.47;;;20.29
53512;BMP280;39392;52.832;13.816;2024-03-25T05:27:38;99867.97;;;20.30
53512;BMP280;39392;52.832;13.816;2024-03-25T05:30:03;99871.53;;;20.31
53512;BMP280;39392;52.832;13.816;2024-03-25T05:32:29;99870.69;;;20.30
53512;BMP280;39392;52.832;13.816;2024-03-25T05:34:54;99879.69;;;20.31
53512;BMP280;39392;52.832;13.816;2024-03-25T05:37:20;99881.59;;;20.30
53512;BMP280;39392;52.832;13.816;2024-03-25T05:39:45;99879.91;;;20.29
53512;BMP280;39392;52.832;13.816;2024-03-25T05:42:11;99887.03;;;20.30
53512;BMP280;39392;52.832;13.816;2024-03-25T05:44:36;99891.41;;;20.31
53512;BMP280;39392;52.832;13.816;2024-03-25T05:47:02;99892.28;;;20.32
53512;BMP280;39392;52.832;13.816;2024-03-25T05:49:27;99893.31;;;20.31
53512;BMP280;39392;52.832;13.816;2024-03-25T05:51:53;99904.41;;;20.29
53512;BMP280;39392;52.832;13.816;2024-03-25T05:54:18;99905.25;;;20.30
53512;BMP280;39392;52.832;13.816;2024-03-25T05:56:44;99903.34;;;20.30
53512;BMP280;39392;52.832;13.816;2024-03-25T05:59:09;99904.00;;;20.32
53512;BMP280;39392;52.832;13.816;2024-03-25T06:01:35;99908.41;;;20.33
53512;BMP280;39392;52.832;13.816;2024-03-25T06:04:03;99912.16;;;20.32
53512;BMP280;39392;52.832;13.816;2024-03-25T06:06:28;99908.63;;;20.32
53512;BMP280;39392;52.832;13.816;2024-03-25T06:08:54;99917.78;;;20.31
53512;BMP280;39392;52.832;13.816;2024-03-25T06:11:19;99918.63;;;20.31
53512;BMP280;39392;52.832;13.816;2024-03-25T06:13:48;99925.97;;;20.31
53512;BMP280;39392;52.832;13.816;2024-03-25T06:16:13;99938.94;;;20.29
53512;BMP280;39392;52.832;13.816;2024-03-25T06:18:39;99937.91;;;20.30
53512;BMP280;39392;52.832;13.816;2024-03-25T06:21:05;99940.63;;;20.30
53512;BMP280;39392;52.832;13.816;2024-03-25T06:23:31;99940.63;;;20.30
53512;BMP280;39392;52.832;13.816;2024-03-25T06:25:56;99944.38;;;20.29
53512;BMP280;39392;52.832;13.816;2024-03-25T06:28:22;99950.66;;;20.29
53512;BMP280;39392;52.832;13.816;2024-03-25T06:30:47;99953.38;;;20.29
53512;BMP280;39392;52.832;13.816;2024-03-25T06:33:32;99962.59;;;20.28
53512;BMP280;39392;52.832;13.816;2024-03-25T06:36:16;99969.94;;;20.28
53512;BMP280;39392;52.832;13.816;2024-03-25T06:38:42;99969.06;;;20.27
53512;BMP280;39392;52.832;13.816;2024-03-25T06:41:08;99972.44;;;20.29
53512;BMP280;39392;52.832;13.816;2024-03-25T06:43:34;99976.22;;;20.28
53512;BMP280;39392;52.832;13.816;2024-03-25T06:45:59;99981.44;;;20.30
53512;BMP280;39392;52.832;13.816;2024-03-25T06:48:25;99984.16;;;20.30
53512;BMP280;39392;52.832;13.816;2024-03-25T06:50:57;99983.31;;;20.29
53512;BMP280;39392;52.832;13.816;2024-03-25T06:53:23;99982.47;;;20.29
53512;BMP280;39392;52.832;13.816;2024-03-25T06:55:55;99995.25;;;20.28
53512;BMP280;39392;52.832;13.816;2024-03-25T06:58:21;99997.97;;;20.28
53512;BMP280;39392;52.832;13.816;2024-03-25T07:00:47;99996.09;;;20.29
53512;BMP280;39392;52.832;13.816;2024-03-25T07:03:14;100002.59;;;20.28
53512;BMP280;39392;52.832;13.816;2024-03-25T07:05:39;100001.53;;;20.29
53512;BMP280;39392;52.832;13.816;2024-03-25T07:08:05;100001.53;;;20.29
53512;BMP280;39392;52.832;13.816;2024-03-25T07:10:30;100001.53;;;20.29
53512;BMP280;39392;52.832;13.816;2024-03-25T07:12:56;100009.69;;;20.29
53512;BMP280;39392;52.832;13.816;2024-03-25T07:15:21;100005.31;;;20.28
53512;BMP280;39392;52.832;13.816;2024-03-25T07:17:47;100022.47;;;20.28
53512;BMP280;39392;52.832;13.816;2024-03-25T07:20:12;100011.59;;;20.28
53512;BMP280;39392;52.832;13.816;2024-03-25T07:22:38;100023.31;;;20.29
53512;BMP280;39392;52.832;13.816;2024-03-25T07:25:03;100027.69;;;20.30
53512;BMP280;39392;52.832;13.816;2024-03-25T07:27:29;100029.56;;;20.29
53512;BMP280;39392;52.832;13.816;2024-03-25T07:29:54;100028.75;;;20.29
53512;BMP280;39392;52.832;13.816;2024-03-25T07:32:20;100035.84;;;20.30
53512;BMP280;39392;52.832;13.816;2024-03-25T07:34:45;100033.34;;;20.28
53512;BMP280;39392;52.832;13.816;2024-03-25T07:37:11;100045.69;;;20.31
53512;BMP280;39392;52.832;13.816;2024-03-25T07:39:36;100046.34;;;20.33
53512;BMP280;39392;52.832;13.816;2024-03-25T07:42:02;100048.41;;;20.31
53512;BMP280;39392;52.832;13.816;2024-03-25T07:44:28;100061.19;;;20.30
53512;BMP280;39392;52.832;13.816;2024-03-25T07:46:53;100064.97;;;20.29
53512;BMP280;39392;52.832;13.816;2024-03-25T07:49:20;100062.03;;;20.31
53512;BMP280;39392;52.832;13.816;2024-03-25T07:51:46;100070.00;;;20.32
53512;BMP280;39392;52.832;13.816;2024-03-25T07:54:11;100072.72;;;20.32
53512;BMP280;39392;52.832;13.816;2024-03-25T07:56:39;100078.78;;;20.34
53512;BMP280;39392;52.832;13.816;2024-03-25T07:59:05;100092.22;;;20.36
53512;BMP280;39392;52.832;13.816;2024-03-25T08:01:30;100083.41;;;20.34
53512;BMP280;39392;52.832;13.816;2024-03-25T08:03:55;100086.78;;;20.36
53512;BMP280;39392;52.832;13.816;2024-03-25T08:06:21;100091.34;;;20.35
53512;BMP280;39392;52.832;13.816;2024-03-25T08:08:47;100088.63;;;20.35
53512;BMP280;39392;52.832;13.816;2024-03-25T08:11:12;100094.94;;;20.36
53512;BMP280;39392;52.832;13.816;2024-03-25T08:13:38;100087.59;;;20.36
53512;BMP280;39392;52.832;13.816;2024-03-25T08:16:03;100094.34;;;20.40
53512;BMP280;39392;52.832;13.816;2024-03-25T08:18:29;100091.78;;;20.39
53512;BMP280;39392;52.832;13.816;2024-03-25T08:20:54;100103.50;;;20.39
53512;BMP280;39392;52.832;13.816;2024-03-25T08:23:20;100108.13;;;20.39
53512;BMP280;39392;52.832;13.816;2024-03-25T08:25:45;100114.63;;;20.38
53512;BMP280;39392;52.832;13.816;2024-03-25T08:28:10;100112.72;;;20.38
53512;BMP280;39392;52.832;13.816;2024-03-25T08:30:36;100111.69;;;20.39
53512;BMP280;39392;52.832;13.816;2024-03-25T08:33:02;100122.38;;;20.41
53512;BMP280;39392;52.832;13.816;2024-03-25T08:35:27;100119.66;;;20.41
53512;BMP280;39392;52.832;13.816;2024-03-25T08:37:53;100122.38;;;20.41
53512;BMP280;39392;52.832;13.816;2024-03-25T08:40:18;100126.16;;;20.40
53512;BMP280;39392;52.832;13.816;2024-03-25T08:42:43;100132.44;;;20.40
53512;BMP280;39392;52.832;13.816;2024-03-25T08:45:09;100133.91;;;20.43
53512;BMP280;39392;52.832;13.816;2024-03-25T08:47:35;100135.78;;;20.43
53512;BMP280;39392;52.832;13.816;2024-03-25T08:50:01;100137.66;;;20.42
53512;BMP280;39392;52.832;13.816;2024-03-25T08:52:26;100134.09;;;20.42
53512;BMP280;39392;52.832;13.816;2024-03-25T08:54:52;100144.78;;;20.43
53512;BMP280;39392;52.832;13.816;2024-03-25T08:57:17;100147.50;;;20.43
53512;BMP280;39392;52.832;13.816;2024-03-25T08:59:43;100141.03;;;20.44
53512;BMP280;39392;52.832;13.816;2024-03-25T09:02:08;100149.00;;;20.46
53512;BMP280;39392;52.832;13.816;2024-03-25T09:04:33;100145.44;;;20.45
53512;BMP280;39392;52.832;13.816;2024-03-25T09:06:59;100147.31;;;20.45
53512;BMP280;39392;52.832;13.816;2024-03-25T09:09:24;100149.00;;;20.46
53512;BMP280;39392;52.832;13.816;2024-03-25T09:12:09;100152.78;;;20.45
53512;BMP280;39392;52.832;13.816;2024-03-25T09:14:34;100150.06;;;20.45
53512;BMP280;39392;52.832;13.816;2024-03-25T09:17:00;100163.44;;;20.46
53512;BMP280;39392;52.832;13.816;2024-03-25T09:19:25;100166.16;;;20.46
53512;BMP280;39392;52.832;13.816;2024-03-25T09:21:51;100158.66;;;20.48
53512;BMP280;39392;52.832;13.816;2024-03-25T09:24:16;100164.75;;;20.50
53512;BMP280;39392;52.832;13.816;2024-03-25T09:26:43;100165.59;;;20.51
53512;BMP280;39392;52.832;13.816;2024-03-25T09:29:08;100177.53;;;20.50
53512;BMP280;39392;52.832;13.816;2024-03-25T09:31:33;100173.97;;;20.49
53512;BMP280;39392;52.832;13.816;2024-03-25T09:33:59;100175.00;;;20.48
53512;BMP280;39392;52.832;13.816;2024-03-25T09:36:24;100176.84;;;20.48
53512;BMP280;39392;52.832;13.816;2024-03-25T09:38:50;100183.34;;;20.47
53512;BMP280;39392;52.832;13.816;2024-03-25T09:41:18;100203.22;;;20.47
53512;BMP280;39392;52.832;13.816;2024-03-25T09:43:44;100202.03;;;20.50
53512;BMP280;39392;52.832;13.816;2024-03-25T09:46:11;100206.66;;;20.49
53512;BMP280;39392;52.832;13.816;2024-03-25T09:48:36;100204.75;;;20.50
53512;BMP280;39392;52.832;13.816;2024-03-25T09:51:02;100209.38;;;20.49
53512;BMP280;39392;52.832;13.816;2024-03-25T09:53:28;100212.09;;;20.49
53512;BMP280;39392;52.832;13.816;2024-03-25T09:55:54;100204.75;;;20.50
53512;BMP280;39392;52.832;13.816;2024-03-25T09:58:21;100211.41;;;20.47
53512;BMP280;39392;52.832;13.816;2024-03-25T10:00:46;100219.41;;;20.49
53512;BMP280;39392;52.832;13.816;2024-03-25T10:03:12;100219.41;;;20.49
53512;BMP280;39392;52.832;13.816;2024-03-25T10:05:39;100219.41;;;20.49
53512;BMP280;39392;52.832;13.816;2024-03-25T10:08:05;100219.56;;;20.47
53512;BMP280;39392;52.832;13.816;2024-03-25T10:10:30;100225.69;;;20.49
53512;BMP280;39392;52.832;13.816;2024-03-25T10:12:56;100225.50;;;20.51
53512;BMP280;39392;52.832;13.816;2024-03-25T10:15:22;100221.72;;;20.52
53512;BMP280;39392;52.832;13.816;2024-03-25T10:17:50;100232.59;;;20.52
53512;BMP280;39392;52.832;13.816;2024-03-25T10:20:17;100234.50;;;20.51
53512;BMP280;39392;52.832;13.816;2024-03-25T10:22:43;100235.31;;;20.52
53512;BMP280;39392;52.832;13.816;2024-03-25T10:25:19;100239.75;;;20.53
53512;BMP280;39392;52.832;13.816;2024-03-25T10:27:52;100238.88;;;20.52
53512;BMP280;39392;52.832;13.816;2024-03-25T10:30:17;100239.56;;;20.54
53512;BMP280;39392;52.832;13.816;2024-03-25T10:32:44;100236.81;;;20.54
53512;BMP280;39392;52.832;13.816;2024-03-25T10:35:09;100243.75;;;20.57
53512;BMP280;39392;52.832;13.816;2024-03-25T10:37:35;100238.94;;;20.59
53512;BMP280;39392;52.832;13.816;2024-03-25T10:40:00;100241.66;;;20.59
53512;BMP280;39392;52.832;13.816;2024-03-25T10:42:26;100242.34;;;20.61
53512;BMP280;39392;52.832;13.816;2024-03-25T10:44:52;100247.78;;;20.61
53512;BMP280;39392;52.832;13.816;2024-03-25T10:47:24;100244.84;;;20.62
53512;BMP280;39392;52.832;13.816;2024-03-25T10:52:17;100238.16;;;20.65
53512;BMP280;39392;52.832;13.816;2024-03-25T10:54:44;100248.84;;;20.67
53512;BMP280;39392;52.832;13.816;2024-03-25T10:57:11;100247.81;;;20.68
53512;BMP280;39392;52.832;13.816;2024-03-25T10:59:38;100238.59;;;20.69
53512;BMP280;39392;52.832;13.816;2024-03-25T11:02:09;100245.53;;;20.71
53512;BMP280;39392;52.832;13.816;2024-03-25T11:04:35;100242.59;;;20.73
53512;BMP280;39392;52.832;13.816;2024-03-25T11:09:33;100250.59;;;20.74
53512;BMP280;39392;52.832;13.816;2024-03-25T11:11:58;100238.66;;;20.75
53512;BMP280;39392;52.832;13.816;2024-03-25T11:14:27;100243.69;;;20.78
53512;BMP280;39392;52.832;13.816;2024-03-25T11:16:53;100243.69;;;20.78
53512;BMP280;39392;52.832;13.816;2024-03-25T11:19:19;100236.53;;;20.77
53512;BMP280;39392;52.832;13.816;2024-03-25T11:21:46;100249.16;;;20.78
53512;BMP280;39392;52.832;13.816;2024-03-25T11:24:11;100240.13;;;20.78
53512;BMP280;39392;52.832;13.816;2024-03-25T11:26:40;100248.09;;;20.79
53512;BMP280;39392;52.832;13.816;2024-03-25T11:29:06;100248.09;;;20.79
53512;BMP280;39392;52.832;13.816;2024-03-25T11:31:37;100249.16;;;20.78
53512;BMP280;39392;52.832;13.816;2024-03-25T11:34:04;100256.25;;;20.79
53512;BMP280;39392;52.832;13.816;2024-03-25T11:36:30;100258.78;;;20.81
53512;BMP280;39392;52.832;13.816;2024-03-25T11:39:03;100259.63;;;20.81
53512;BMP280;39392;52.832;13.816;2024-03-25T11:41:41;100257.75;;;20.82
53512;BMP280;39392;52.832;13.816;2024-03-25T11:44:10;100255.03;;;20.82
53512;BMP280;39392;52.832;13.816;2024-03-25T11:46:38;100261.72;;;20.79
53512;BMP280;39392;52.832;13.816;2024-03-25T11:49:08;100259.00;;;20.79
53512;BMP280;39392;52.832;13.816;2024-03-25T11:51:35;100257.94;;;20.80
53512;BMP280;39392;52.832;13.816;2024-03-25T11:54:02;100248.09;;;20.79
53512;BMP280;39392;52.832;13.816;2024-03-25T11:56:30;100259.63;;;20.81
53512;BMP280;39392;52.832;13.816;2024-03-25T11:58:55;100250.16;;;20.77
53512;BMP280;39392;52.832;13.816;2024-03-25T12:01:21;100253.75;;;20.78
53512;BMP280;39392;52.832;13.816;2024-03-25T12:03:46;100252.03;;;20.77
53512;BMP280;39392;52.832;13.816;2024-03-25T12:06:12;100248.50;;;20.76
53512;BMP280;39392;52.832;13.816;2024-03-25T12:08:37;100254.59;;;20.78
53512;BMP280;39392;52.832;13.816;2024-03-25T12:11:23;100246.41;;;20.78
53512;BMP280;39392;52.832;13.816;2024-03-25T12:13:49;100242.44;;;20.81
53512;BMP280;39392;52.832;13.816;2024-03-25T12:16:14;100248.72;;;20.81
53512;BMP280;39392;52.832;13.816;2024-03-25T12:18:40;100244.31;;;20.80
53512;BMP280;39392;52.832;13.816;2024-03-25T12:21:07;100246.88;;;20.82
53512;BMP280;39392;52.832;13.816;2024-03-25T12:23:32;100242.66;;;20.79
53512;BMP280;39392;52.832;13.816;2024-03-25T12:25:59;100250.59;;;20.81
53512;BMP280;39392;52.832;13.816;2024-03-25T12:28:24;100245.16;;;20.81
53512;BMP280;39392;52.832;13.816;2024-03-25T12:30:50;100249.78;;;20.80
53512;BMP280;39392;52.832;13.816;2024-03-25T12:33:16;100265.94;;;20.82
53512;BMP280;39392;52.832;13.816;2024-03-25T12:35:44;100260.47;;;20.82
53512;BMP280;39392;52.832;13.816;2024-03-25T12:38:10;100261.31;;;20.82
53512;BMP280;39392;52.832;13.816;2024-03-25T12:40:46;100274.94;;;20.82
53512;BMP280;39392;52.832;13.816;2024-03-25T12:43:15;100281.22;;;20.83
53512;BMP280;39392;52.832;13.816;2024-03-25T12:45:47;100282.06;;;20.83
53512;BMP280;39392;52.832;13.816;2024-03-25T12:48:13;100285.84;;;20.82
53512;BMP280;39392;52.832;13.816;2024-03-25T12:50:39;100281.41;;;20.81
53512;BMP280;39392;52.832;13.816;2024-03-25T12:53:05;100286.00;;;20.81
53512;BMP280;39392;52.832;13.816;2024-03-25T12:55:31;100283.50;;;20.79
53512;BMP280;39392;52.832;13.816;2024-03-25T12:57:56;100277.00;;;20.80
53512;BMP280;39392;52.832;13.816;2024-03-25T13:00:21;100278.88;;;20.80
53512;BMP280;39392;52.832;13.816;2024-03-25T13:02:47;100281.81;;;20.78
53512;BMP280;39392;52.832;13.816;2024-03-25T13:05:13;100279.09;;;20.78
53512;BMP280;39392;52.832;13.816;2024-03-25T13:07:38;100276.38;;;20.78
53512;BMP280;39392;52.832;13.816;2024-03-25T13:10:03;100281.81;;;20.78
53512;BMP280;39392;52.832;13.816;2024-03-25T13:12:30;100281.16;;;20.76
53512;BMP280;39392;52.832;13.816;2024-03-25T13:14:56;100281.00;;;20.78
53512;BMP280;39392;52.832;13.816;2024-03-25T13:17:21;100276.38;;;20.78
53512;BMP280;39392;52.832;13.816;2024-03-25T13:19:47;100289.16;;;20.78
53512;BMP280;39392;52.832;13.816;2024-03-25T13:22:12;100286.44;;;20.78
53512;BMP280;39392;52.832;13.816;2024-03-25T13:24:38;100289.16;;;20.78
53512;BMP280;39392;52.832;13.816;2024-03-25T13:27:03;100284.56;;;20.78
53512;BMP280;39392;52.832;13.816;2024-03-25T13:29:29;100288.09;;;20.79
53512;BMP280;39392;52.832;13.816;2024-03-25T13:31:55;100287.06;;;20.80
53512;BMP280;39392;52.832;13.816;2024-03-25T13:34:20;100282.84;;;20.77
53512;BMP280;39392;52.832;13.816;2024-03-25T13:36:45;100300.06;;;20.78
53512;BMP280;39392;52.832;13.816;2024-03-25T13:39:11;100295.44;;;20.78
53512;BMP280;39392;52.832;13.816;2024-03-25T13:41:37;100298.78;;;20.80
53512;BMP280;39392;52.832;13.816;2024-03-25T13:44:03;100308.63;;;20.81
53512;BMP280;39392;52.832;13.816;2024-03-25T13:46:29;100303.84;;;20.83
53512;BMP280;39392;52.832;13.816;2024-03-25T13:48:54;100300.28;;;20.83
53512;BMP280;39392;52.832;13.816;2024-03-25T13:51:20;100302.19;;;20.82